Warm Springs, Virginia
Current Conditions -  °F | °C
As of 3:35 PM on Thursday 27 Nov 2014 (Local Time) from KHSP Reporting Station
Overcast Overcast  
Wind Chill: 12°   Ceiling: 1400
Heat Index: 25°   Visibility: 7mi
Dew Point: 21°   Wind: 15mph
Humidity: 86%   Direction: 290°WNW
Pressure: 29.96"   Gusts: 23mph
Location:  38.05°N, 79.79°W
Report Text: KHSP 272035Z AUTO 29013G20KT 7SM OVC014 M04/M06 A2996 RMK AO2 T10401061
Loading
Personal Weather Stations






























Interactive Weather Map New forecast layout! Learn more

10-Day Weather Forecast

Advertisements
Track Severe Weather on mobile